Time;durP1;ratioP1;P1;durP2;ratioP2;P2;SDS_P1;SDS_P2;PMS_P1;PMS_P2;Temp;Humidity;BMP_temperature;BMP_pressure;BME280_temperature;BME280_humidity;BME280_pressure;Samples;Min_cycle;Max_cycle;Signal;HPM_P1;HPM_P2
2023/05/01 01:59:01;;;;;;;1999.90;999.90;;;;;;;;;;6312550;22;20209;-68
2023/05/01 02:01:46;;;;;;;1999.90;999.90;;;;;;;;;;6336778;22;20623;-69
2023/05/01 02:04:32;;;;;;;1999.90;999.90;;;;;;;;;;6337465;22;20167;-67
2023/05/01 02:07:17;;;;;;;1999.90;999.90;;;;;;;;;;6337707;22;20514;-66
2023/05/01 02:10:04;;;;;;;1999.90;999.90;;;;;;;;;;6311120;22;20290;-67
2023/05/01 02:12:51;;;;;;;1999.90;999.90;;;;;;;;;;6278604;22;20168;-65
2023/05/01 02:15:38;;;;;;;1999.90;999.90;;;;;;;;;;6306047;22;20163;-70
2023/05/01 02:18:23;;;;;;;1999.90;999.90;;;;;;;;;;6305985;22;20163;-69
2023/05/01 02:21:09;;;;;;;1999.90;999.90;;;;;;;;;;6305781;22;20674;-69
2023/05/01 02:23:54;;;;;;;1999.90;999.90;;;;;;;;;;6306176;22;20358;-69
2023/05/01 02:26:42;;;;;;;1999.90;999.90;;;;;;;;;;6306082;22;20167;-65
2023/05/01 02:29:27;;;;;;;1999.90;999.90;;;;;;;;;;6305907;22;20212;-67
2023/05/01 02:32:14;;;;;;;1999.90;999.90;;;;;;;;;;6306045;22;20168;-67
2023/05/01 02:35:00;;;;;;;1999.90;999.90;;;;;;;;;;6305965;22;20493;-66
2023/05/01 02:37:45;;;;;;;1999.90;999.90;;;;;;;;;;6305949;22;20168;-67
2023/05/01 02:40:31;;;;;;;1999.90;999.90;;;;;;;;;;6305875;22;20245;-67
2023/05/01 02:43:18;;;;;;;1999.90;999.90;;;;;;;;;;6305285;22;20373;-68
2023/05/01 02:46:04;;;;;;;1999.90;999.90;;;;;;;;;;6305906;22;20509;-67
2023/05/01 02:48:50;;;;;;;1999.90;999.90;;;;;;;;;;6305911;22;20285;-67
2023/05/01 02:51:37;;;;;;;1999.90;999.90;;;;;;;;;;6305699;22;20167;-67
2023/05/01 02:54:22;;;;;;;1999.90;999.90;;;;;;;;;;6305779;22;20181;-67
2023/05/01 02:57:09;;;;;;;1999.90;999.90;;;;;;;;;;6306048;22;20245;-68
2023/05/01 02:59:55;;;;;;;1999.90;999.90;;;;;;;;;;6305572;22;20210;-68
2023/05/01 03:02:41;;;;;;;1999.90;999.90;;;;;;;;;;6306029;22;20645;-68
2023/05/01 03:05:27;;;;;;;1999.90;999.90;;;;;;;;;;6305595;22;20163;-67
2023/05/01 03:08:12;;;;;;;1999.90;999.90;;;;;;;;;;6305549;22;20658;-68
2023/05/01 03:10:57;;;;;;;1999.90;999.90;;;;;;;;;;6304691;22;20563;-69
2023/05/01 03:13:42;;;;;;;1999.90;999.90;;;;;;;;;;6305845;22;20163;-69
2023/05/01 03:16:27;;;;;;;1999.90;999.90;;;;;;;;;;6305096;22;20218;-69
2023/05/01 03:19:12;;;;;;;1999.90;999.90;;;;;;;;;;6305762;22;20199;-68
2023/05/01 03:21:58;;;;;;;1999.90;999.90;;;;;;;;;;6308576;22;20213;-68
2023/05/01 03:24:43;;;;;;;1999.90;999.90;;;;;;;;;;6309091;22;20168;-69
2023/05/01 03:27:29;;;;;;;1999.90;999.90;;;;;;;;;;6309094;22;20163;-69
2023/05/01 03:30:14;;;;;;;1999.90;999.90;;;;;;;;;;6308817;22;20585;-69
2023/05/01 03:32:59;;;;;;;1999.90;999.90;;;;;;;;;;6307744;22;20728;-69
2023/05/01 03:35:44;;;;;;;1999.90;999.90;;;;;;;;;;6308494;22;20275;-68
2023/05/01 03:38:31;;;;;;;1999.90;999.90;;;;;;;;;;6308956;22;20245;-68
2023/05/01 03:41:15;;;;;;;1999.90;999.90;;;;;;;;;;6308473;22;20645;-69
2023/05/01 03:44:00;;;;;;;1999.90;999.90;;;;;;;;;;6309055;22;20249;-69
2023/05/01 03:46:45;;;;;;;1999.90;999.90;;;;;;;;;;6308984;22;20640;-69
2023/05/01 03:49:30;;;;;;;1999.90;999.90;;;;;;;;;;6308371;22;20211;-69
2023/05/01 03:52:15;;;;;;;1999.90;999.90;;;;;;;;;;6309281;22;20514;-69
2023/05/01 03:55:01;;;;;;;1999.90;999.90;;;;;;;;;;6308282;22;20164;-69
2023/05/01 03:57:46;;;;;;;1999.90;999.90;;;;;;;;;;6309202;22;20167;-69
2023/05/01 04:00:32;;;;;;;1999.90;999.90;;;;;;;;;;6308276;22;20187;-69
2023/05/01 04:03:16;;;;;;;1999.90;999.90;;;;;;;;;;6308926;22;20215;-69
2023/05/01 04:06:02;;;;;;;1999.90;999.90;;;;;;;;;;6308257;22;20612;-69
2023/05/01 04:08:47;;;;;;;1999.90;999.90;;;;;;;;;;6308851;22;20206;-67
2023/05/01 04:11:33;;;;;;;1999.90;999.90;;;;;;;;;;6308906;22;20163;-69
2023/05/01 04:14:18;;;;;;;1999.90;999.90;;;;;;;;;;6308425;22;20689;-69
2023/05/01 04:17:03;;;;;;;1999.90;999.90;;;;;;;;;;6308687;22;20467;-68
2023/05/01 04:19:48;;;;;;;1999.90;999.90;;;;;;;;;;6307194;22;20529;-69
2023/05/01 04:22:33;;;;;;;1999.90;999.90;;;;;;;;;;6307350;22;20167;-64
2023/05/01 04:25:18;;;;;;;1999.90;999.90;;;;;;;;;;6308299;22;20203;-69
2023/05/01 04:28:04;;;;;;;1999.90;999.90;;;;;;;;;;6308520;22;20206;-64
2023/05/01 04:30:49;;;;;;;1999.90;999.90;;;;;;;;;;6308808;22;20611;-69
2023/05/01 04:33:34;;;;;;;1999.90;999.90;;;;;;;;;;6307100;22;20253;-69
2023/05/01 04:36:19;;;;;;;1999.90;999.90;;;;;;;;;;6306936;22;20246;-67
2023/05/01 04:39:04;;;;;;;1999.90;999.90;;;;;;;;;;6307094;22;20242;-67
2023/05/01 04:41:49;;;;;;;1999.90;999.90;;;;;;;;;;6307108;22;20253;-68
2023/05/01 04:44:36;;;;;;;1999.90;999.90;;;;;;;;;;6306309;22;20505;-69
2023/05/01 04:47:21;;;;;;;1999.90;999.90;;;;;;;;;;6306202;22;20162;-68
2023/05/01 04:50:06;;;;;;;1999.90;999.90;;;;;;;;;;6305906;22;20698;-68
2023/05/01 04:52:51;;;;;;;1999.90;999.90;;;;;;;;;;6306891;22;20497;-67
2023/05/01 04:55:36;;;;;;;1999.90;999.90;;;;;;;;;;6306674;22;20171;-65
2023/05/01 04:58:21;;;;;;;1999.90;999.90;;;;;;;;;;6306681;22;20678;-65
2023/05/01 05:01:07;;;;;;;1999.90;999.90;;;;;;;;;;6306685;22;20255;-65
2023/05/01 05:03:53;;;;;;;1999.90;999.90;;;;;;;;;;6306547;22;20632;-64
2023/05/01 05:06:38;;;;;;;1999.90;999.90;;;;;;;;;;6306411;22;20164;-69
2023/05/01 05:09:23;;;;;;;1999.90;999.90;;;;;;;;;;6306340;22;20458;-70
2023/05/01 05:12:08;;;;;;;1999.90;999.90;;;;;;;;;;6307310;22;20719;-69
2023/05/01 05:14:53;;;;;;;1999.90;999.90;;;;;;;;;;6307086;22;20642;-71
2023/05/01 05:17:40;;;;;;;1999.90;999.90;;;;;;;;;;6307055;22;20164;-69
2023/05/01 05:20:25;;;;;;;1999.90;999.90;;;;;;;;;;6306713;22;20199;-69
2023/05/01 05:23:10;;;;;;;1999.90;999.90;;;;;;;;;;6306998;22;20170;-69
2023/05/01 05:25:56;;;;;;;1999.90;999.90;;;;;;;;;;6307118;22;20171;-69
2023/05/01 05:28:42;;;;;;;1999.90;999.90;;;;;;;;;;6306666;22;20220;-68
2023/05/01 05:31:26;;;;;;;1999.90;999.90;;;;;;;;;;6307292;22;20628;-71
2023/05/01 05:34:13;;;;;;;1999.90;999.90;;;;;;;;;;6306961;22;20247;-69
2023/05/01 05:36:58;;;;;;;1999.90;999.90;;;;;;;;;;6307327;22;20197;-70
2023/05/01 05:39:43;;;;;;;1999.90;999.90;;;;;;;;;;6306987;22;20211;-70
2023/05/01 05:42:29;;;;;;;1999.90;999.90;;;;;;;;;;6306781;22;20174;-68
2023/05/01 05:45:14;;;;;;;1999.90;999.90;;;;;;;;;;6306577;22;20210;-69
2023/05/01 05:47:59;;;;;;;1999.90;999.90;;;;;;;;;;6306876;22;20164;-69
2023/05/01 05:50:45;;;;;;;1999.90;999.90;;;;;;;;;;6306831;22;20170;-68
2023/05/01 05:53:31;;;;;;;1999.90;999.90;;;;;;;;;;6305677;22;20378;-70
2023/05/01 05:56:16;;;;;;;1999.90;999.90;;;;;;;;;;6306868;22;20365;-69
2023/05/01 05:59:03;;;;;;;1999.90;999.90;;;;;;;;;;6306777;22;20578;-68
2023/05/01 06:01:47;;;;;;;1999.90;999.90;;;;;;;;;;6306807;22;20164;-70
2023/05/01 06:04:32;;;;;;;1999.90;999.90;;;;;;;;;;6306668;22;20633;-69
2023/05/01 06:07:19;;;;;;;1999.90;999.90;;;;;;;;;;6306414;22;20170;-71
2023/05/01 06:10:05;;;;;;;1999.90;999.90;;;;;;;;;;6306190;22;20247;-70
2023/05/01 06:12:49;;;;;;;1999.90;999.90;;;;;;;;;;6306035;22;20282;-69
2023/05/01 06:15:35;;;;;;;1999.90;999.90;;;;;;;;;;6306073;22;20208;-68
2023/05/01 06:18:20;;;;;;;1999.90;999.90;;;;;;;;;;6306158;22;20169;-71
2023/05/01 06:21:05;;;;;;;1999.90;999.90;;;;;;;;;;6306118;22;20627;-67
2023/05/01 06:23:52;;;;;;;1999.90;999.90;;;;;;;;;;6306543;22;20221;-67
2023/05/01 06:26:37;;;;;;;1999.90;999.90;;;;;;;;;;6305676;22;20240;-68
2023/05/01 06:29:22;;;;;;;1999.90;999.90;;;;;;;;;;6306004;22;20282;-70
2023/05/01 06:32:06;;;;;;;1999.90;999.90;;;;;;;;;;6304766;22;20424;-70
2023/05/01 06:34:51;;;;;;;1999.90;999.90;;;;;;;;;;6305794;22;20326;-70
2023/05/01 06:37:37;;;;;;;1999.90;999.90;;;;;;;;;;6305969;22;20186;-70
2023/05/01 06:40:23;;;;;;;1999.90;999.90;;;;;;;;;;6306050;22;20201;-71
2023/05/01 06:43:08;;;;;;;1999.90;999.90;;;;;;;;;;6302851;22;20193;-70
2023/05/01 06:45:53;;;;;;;1999.90;999.90;;;;;;;;;;6301288;22;20380;-71
2023/05/01 06:48:38;;;;;;;1999.90;999.90;;;;;;;;;;6302763;22;20241;-70
2023/05/01 06:51:23;;;;;;;1999.90;999.90;;;;;;;;;;6303391;22;20213;-70
2023/05/01 06:54:08;;;;;;;1999.90;999.90;;;;;;;;;;6303400;22;20170;-70
2023/05/01 06:56:55;;;;;;;1999.90;999.90;;;;;;;;;;6302720;22;20175;-69
2023/05/01 06:59:40;;;;;;;1999.90;999.90;;;;;;;;;;6303483;22;20247;-69
2023/05/01 07:02:25;;;;;;;1999.90;999.90;;;;;;;;;;6302272;22;20692;-69
2023/05/01 07:05:10;;;;;;;1999.90;999.90;;;;;;;;;;6303071;22;20514;-69
2023/05/01 07:07:55;;;;;;;1999.90;999.90;;;;;;;;;;6303379;22;20671;-69
2023/05/01 07:10:40;;;;;;;1999.90;999.90;;;;;;;;;;6303422;22;20214;-68
2023/05/01 07:13:26;;;;;;;1999.90;999.90;;;;;;;;;;6303397;22;20170;-68
2023/05/01 07:16:11;;;;;;;1999.90;999.90;;;;;;;;;;6303859;22;20242;-69
2023/05/01 07:18:56;;;;;;;1999.90;999.90;;;;;;;;;;6303213;22;20244;-68
2023/05/01 07:21:41;;;;;;;1999.90;999.90;;;;;;;;;;6303730;22;20627;-69
2023/05/01 07:24:26;;;;;;;1999.90;999.90;;;;;;;;;;6302667;22;20507;-68
2023/05/01 07:27:11;;;;;;;1999.90;999.90;;;;;;;;;;6303115;22;20217;-69
2023/05/01 07:29:57;;;;;;;1999.90;999.90;;;;;;;;;;6303510;22;20202;-68
2023/05/01 07:32:42;;;;;;;1999.90;999.90;;;;;;;;;;6303125;22;20186;-69
2023/05/01 07:35:27;;;;;;;1999.90;999.90;;;;;;;;;;6300962;22;20452;-69
2023/05/01 07:38:12;;;;;;;1999.90;999.90;;;;;;;;;;6302403;22;20171;-68
2023/05/01 07:40:58;;;;;;;1999.90;999.90;;;;;;;;;;6303693;22;20164;-68
2023/05/01 07:43:42;;;;;;;1999.90;999.90;;;;;;;;;;6303420;22;20179;-69
2023/05/01 07:46:29;;;;;;;1999.90;999.90;;;;;;;;;;6303085;22;20179;-70
2023/05/01 07:49:14;;;;;;;1999.90;999.90;;;;;;;;;;6301192;22;20338;-68
2023/05/01 07:51:59;;;;;;;1999.90;999.90;;;;;;;;;;6302146;22;20222;-68
2023/05/01 07:54:49;;;;;;;1999.90;999.90;;;;;;;;;;6303635;22;20166;-69
2023/05/01 07:57:35;;;;;;;1999.90;999.90;;;;;;;;;;6302806;22;20180;-68
2023/05/01 08:00:20;;;;;;;1999.90;999.90;;;;;;;;;;6303239;22;20249;-70
2023/05/01 08:03:06;;;;;;;1999.90;999.90;;;;;;;;;;6303186;22;20682;-70
2023/05/01 08:05:51;;;;;;;1999.90;999.90;;;;;;;;;;6303242;22;20171;-70
2023/05/01 08:08:36;;;;;;;1999.90;999.90;;;;;;;;;;6304390;22;20199;-70
2023/05/01 08:11:21;;;;;;;1999.90;999.90;;;;;;;;;;6305116;22;20492;-71
2023/05/01 08:14:06;;;;;;;1999.90;999.90;;;;;;;;;;6305326;22;20238;-70
2023/05/01 08:16:54;;;;;;;1999.90;999.90;;;;;;;;;;6304879;22;20238;-70
2023/05/01 08:19:40;;;;;;;1999.90;999.90;;;;;;;;;;6305140;22;20203;-69
2023/05/01 08:22:24;;;;;;;1999.90;999.90;;;;;;;;;;6304941;22;20506;-70
2023/05/01 08:25:09;;;;;;;1999.90;999.90;;;;;;;;;;6303521;22;20386;-71
2023/05/01 08:27:55;;;;;;;1999.90;999.90;;;;;;;;;;6304749;22;20509;-71
2023/05/01 08:30:40;;;;;;;1999.90;999.90;;;;;;;;;;6305295;22;20237;-70
2023/05/01 08:33:25;;;;;;;1999.90;999.90;;;;;;;;;;6305230;22;20636;-72
2023/05/01 08:36:11;;;;;;;1999.90;999.90;;;;;;;;;;6304829;22;20168;-70
2023/05/01 09:00:34;;;;;;;1999.90;999.90;;;;;;;;;;6266789;22;20347;-76
2023/05/01 09:03:19;;;;;;;1999.90;999.90;;;;;;;;;;6241512;23;20498;-74
2023/05/01 09:06:05;;;;;;;1999.90;999.90;;;;;;;;;;6241504;23;20710;-75
2023/05/01 09:08:50;;;;;;;1999.90;999.90;;;;;;;;;;6231998;23;20209;-74
2023/05/01 09:11:35;;;;;;;1999.90;999.90;;;;;;;;;;6210651;23;20382;-73
2023/05/01 09:14:20;;;;;;;1999.90;999.90;;;;;;;;;;6210798;23;20173;-74
2023/05/01 09:17:07;;;;;;;1999.90;999.90;;;;;;;;;;6210353;23;20253;-74
2023/05/01 09:19:52;;;;;;;1999.90;999.90;;;;;;;;;;6210371;23;20246;-74
2023/05/01 09:22:37;;;;;;;1999.90;999.90;;;;;;;;;;6209962;23;20170;-74
2023/05/01 09:25:22;;;;;;;1999.90;999.90;;;;;;;;;;6210755;23;20221;-75
2023/05/01 09:28:07;;;;;;;1999.90;999.90;;;;;;;;;;6210069;23;20214;-76
2023/05/01 09:30:52;;;;;;;1999.90;999.90;;;;;;;;;;6211357;23;20233;-77
2023/05/01 09:33:51;;;;;;;1999.90;999.90;;;;;;;;;;6210962;23;20175;-73
2023/05/01 09:36:37;;;;;;;1999.90;999.90;;;;;;;;;;6208652;23;20556;-75
2023/05/01 09:39:22;;;;;;;1999.90;999.90;;;;;;;;;;6209451;23;20204;-76
2023/05/01 09:42:08;;;;;;;1999.90;999.90;;;;;;;;;;6210430;23;20170;-76
2023/05/01 09:44:53;;;;;;;1999.90;999.90;;;;;;;;;;6208910;23;20374;-75
2023/05/01 09:47:38;;;;;;;1999.90;999.90;;;;;;;;;;6210178;23;20366;-77
2023/05/01 09:50:31;;;;;;;1999.90;999.90;;;;;;;;;;6210238;23;20205;-77
2023/05/01 09:53:16;;;;;;;1999.90;999.90;;;;;;;;;;6209425;23;20213;-75
2023/05/01 09:56:01;;;;;;;1999.90;999.90;;;;;;;;;;6210397;23;20248;-76
2023/05/01 09:58:47;;;;;;;1999.90;999.90;;;;;;;;;;6208254;23;20365;-76
2023/05/01 10:01:39;;;;;;;1999.90;999.90;;;;;;;;;;6210181;23;20204;-77
2023/05/01 10:04:29;;;;;;;1999.90;999.90;;;;;;;;;;6210802;23;20256;-76
2023/05/01 10:07:16;;;;;;;1999.90;999.90;;;;;;;;;;6209598;23;20165;-76
2023/05/01 10:10:15;;;;;;;1999.90;999.90;;;;;;;;;;6209400;23;20205;-76
2023/05/01 10:13:12;;;;;;;1999.90;999.90;;;;;;;;;;6209984;23;20170;-75
2023/05/01 10:16:00;;;;;;;1999.90;999.90;;;;;;;;;;6210662;23;20225;-76
2023/05/01 10:18:45;;;;;;;1999.90;999.90;;;;;;;;;;6209566;23;20205;-77
2023/05/01 10:21:30;;;;;;;1999.90;999.90;;;;;;;;;;6210066;23;20274;-75
2023/05/01 10:24:17;;;;;;;1999.90;999.90;;;;;;;;;;6209639;23;20173;-75
2023/05/01 10:27:04;;;;;;;1999.90;999.90;;;;;;;;;;6210193;23;20169;-76
2023/05/01 10:29:52;;;;;;;1999.90;999.90;;;;;;;;;;6209121;23;20886;-76
2023/05/01 10:32:38;;;;;;;1999.90;999.90;;;;;;;;;;6210397;23;20169;-76
2023/05/01 10:35:25;;;;;;;1999.90;999.90;;;;;;;;;;6209591;23;20165;-76
2023/05/01 10:38:13;;;;;;;1999.90;999.90;;;;;;;;;;6209110;23;20166;-77
2023/05/01 10:40:59;;;;;;;1999.90;999.90;;;;;;;;;;6209354;23;20165;-75
2023/05/01 10:43:44;;;;;;;1999.90;999.90;;;;;;;;;;6210607;23;20289;-77
2023/05/01 10:46:30;;;;;;;1999.90;999.90;;;;;;;;;;6209933;23;20330;-77
2023/05/01 10:49:15;;;;;;;1999.90;999.90;;;;;;;;;;6208628;23;20229;-76
2023/05/01 10:52:01;;;;;;;1999.90;999.90;;;;;;;;;;6209461;23;20185;-76
2023/05/01 10:54:46;;;;;;;1999.90;999.90;;;;;;;;;;6210521;23;20683;-78
2023/05/01 10:57:45;;;;;;;1999.90;999.90;;;;;;;;;;6209968;23;20171;-77
2023/05/01 11:00:30;;;;;;;1999.90;999.90;;;;;;;;;;6210844;23;20204;-77
2023/05/01 11:03:33;;;;;;;1999.90;999.90;;;;;;;;;;6214186;23;20176;-78
2023/05/01 11:06:18;;;;;;;1999.90;999.90;;;;;;;;;;6212172;23;20240;-78
2023/05/01 11:09:31;;;;;;;1999.90;999.90;;;;;;;;;;6212097;23;20731;-78
2023/05/01 11:12:36;;;;;;;1999.90;999.90;;;;;;;;;;6212475;23;20169;-78
2023/05/01 11:15:27;;;;;;;1999.90;999.90;;;;;;;;;;6211576;23;20201;-76
2023/05/01 11:18:12;;;;;;;1999.90;999.90;;;;;;;;;;6210939;23;20625;-79
2023/05/01 11:20:57;;;;;;;1999.90;999.90;;;;;;;;;;6211676;23;20165;-77
2023/05/01 11:23:46;;;;;;;1999.90;999.90;;;;;;;;;;6211198;23;20172;-76
2023/05/01 11:26:31;;;;;;;1999.90;999.90;;;;;;;;;;6209989;23;20305;-75
2023/05/01 11:29:17;;;;;;;1999.90;999.90;;;;;;;;;;6210321;23;20209;-75
2023/05/01 11:32:03;;;;;;;1999.90;999.90;;;;;;;;;;6210546;23;20200;-76
2023/05/01 11:34:49;;;;;;;1999.90;999.90;;;;;;;;;;6209406;23;20379;-77
2023/05/01 11:37:41;;;;;;;1999.90;999.90;;;;;;;;;;6211065;23;20680;-77
2023/05/01 11:40:26;;;;;;;1999.90;999.90;;;;;;;;;;6210261;23;20253;-77
2023/05/01 11:43:12;;;;;;;1999.90;999.90;;;;;;;;;;6212604;23;20248;-75
2023/05/01 11:46:01;;;;;;;1999.90;999.90;;;;;;;;;;6212199;23;20165;-77
2023/05/01 11:48:49;;;;;;;1999.90;999.90;;;;;;;;;;6211783;23;20248;-77
2023/05/01 11:51:35;;;;;;;1999.90;999.90;;;;;;;;;;6212117;23;20276;-76
2023/05/01 11:54:20;;;;;;;1999.90;999.90;;;;;;;;;;6212942;23;20176;-78
2023/05/01 11:57:05;;;;;;;1999.90;999.90;;;;;;;;;;6212221;23;20169;-76
2023/05/01 11:59:50;;;;;;;1999.90;999.90;;;;;;;;;;6212367;23;20204;-77
2023/05/01 12:02:35;;;;;;;1999.90;999.90;;;;;;;;;;6213554;23;20244;-78
2023/05/01 12:05:22;;;;;;;1999.90;999.90;;;;;;;;;;6214676;23;20180;-78
2023/05/01 12:08:08;;;;;;;1999.90;999.90;;;;;;;;;;6216057;23;20165;-79
2023/05/01 12:10:55;;;;;;;1999.90;999.90;;;;;;;;;;6211944;23;20724;-78
2023/05/01 12:13:40;;;;;;;1999.90;999.90;;;;;;;;;;6214308;23;20176;-78
2023/05/01 12:16:27;;;;;;;1999.90;999.90;;;;;;;;;;6213275;23;20172;-78
2023/05/01 12:19:12;;;;;;;1999.90;999.90;;;;;;;;;;6214876;23;20212;-79
2023/05/01 12:22:08;;;;;;;1999.90;999.90;;;;;;;;;;6215825;23;20182;-79
2023/05/01 12:24:53;;;;;;;1999.90;999.90;;;;;;;;;;6211924;23;20381;-78
2023/05/01 12:27:42;;;;;;;1999.90;999.90;;;;;;;;;;6213305;23;20630;-78
2023/05/01 12:30:28;;;;;;;1999.90;999.90;;;;;;;;;;6214751;23;20204;-79
2023/05/01 12:33:14;;;;;;;1999.90;999.90;;;;;;;;;;6216282;23;20713;-77
2023/05/01 12:36:08;;;;;;;1999.90;999.90;;;;;;;;;;6213183;23;20172;-79
2023/05/01 12:39:02;;;;;;;1999.90;999.90;;;;;;;;;;6212345;23;20293;-78
2023/05/01 12:41:48;;;;;;;1999.90;999.90;;;;;;;;;;6212846;23;20508;-78
2023/05/01 12:44:33;;;;;;;1999.90;999.90;;;;;;;;;;6212702;23;20254;-77
2023/05/01 12:47:18;;;;;;;1999.90;999.90;;;;;;;;;;6212494;23;20168;-77
2023/05/01 12:50:03;;;;;;;1999.90;999.90;;;;;;;;;;6212889;23;20675;-78
2023/05/01 12:52:49;;;;;;;1999.90;999.90;;;;;;;;;;6212848;23;20628;-78
2023/05/01 12:55:44;;;;;;;1999.90;999.90;;;;;;;;;;6214021;23;20624;-79
2023/05/01 12:58:34;;;;;;;1999.90;999.90;;;;;;;;;;6213709;23;20463;-76
2023/05/01 13:01:23;;;;;;;1999.90;999.90;;;;;;;;;;6212667;23;20191;-78
2023/05/01 13:04:08;;;;;;;1999.90;999.90;;;;;;;;;;6214445;23;20167;-78
2023/05/01 13:06:54;;;;;;;1999.90;999.90;;;;;;;;;;6214412;23;20187;-77
2023/05/01 13:09:39;;;;;;;1999.90;999.90;;;;;;;;;;6214469;23;20205;-78
2023/05/01 13:12:26;;;;;;;1999.90;999.90;;;;;;;;;;6213552;23;20474;-77
2023/05/01 13:15:19;;;;;;;1999.90;999.90;;;;;;;;;;6214957;23;20176;-78
2023/05/01 13:18:04;;;;;;;1999.90;999.90;;;;;;;;;;6214531;23;20173;-78
2023/05/01 13:20:50;;;;;;;1999.90;999.90;;;;;;;;;;6214691;23;20166;-78
2023/05/01 13:23:35;;;;;;;1999.90;999.90;;;;;;;;;;6214109;23;20179;-78
2023/05/01 13:26:24;;;;;;;1999.90;999.90;;;;;;;;;;6214189;23;20252;-78
2023/05/01 13:29:14;;;;;;;1999.90;999.90;;;;;;;;;;6214269;23;20274;-77
2023/05/01 13:31:59;;;;;;;1999.90;999.90;;;;;;;;;;6214454;23;20532;-78
2023/05/01 13:34:44;;;;;;;1999.90;999.90;;;;;;;;;;6214318;23;20379;-78
2023/05/01 13:37:29;;;;;;;1999.90;999.90;;;;;;;;;;6214034;23;20166;-78
2023/05/01 13:40:14;;;;;;;1999.90;999.90;;;;;;;;;;6215172;23;20218;-76
2023/05/01 13:42:59;;;;;;;1999.90;999.90;;;;;;;;;;6214731;23;20237;-77
2023/05/01 13:45:46;;;;;;;1999.90;999.90;;;;;;;;;;6214409;23;20170;-76
2023/05/01 13:48:31;;;;;;;1999.90;999.90;;;;;;;;;;6215138;23;20246;-77
2023/05/01 13:51:20;;;;;;;1999.90;999.90;;;;;;;;;;6213976;23;20209;-77
2023/05/01 13:54:06;;;;;;;1999.90;999.90;;;;;;;;;;6214592;23;20247;-77
2023/05/01 13:56:52;;;;;;;1999.90;999.90;;;;;;;;;;6214364;23;20695;-77
2023/05/01 13:59:39;;;;;;;1999.90;999.90;;;;;;;;;;6207053;23;20871;-75
2023/05/01 14:02:26;;;;;;;1999.90;999.90;;;;;;;;;;6210848;23;20194;-76
2023/05/01 14:05:11;;;;;;;1999.90;999.90;;;;;;;;;;6209799;23;20230;-74
2023/05/01 14:07:57;;;;;;;1999.90;999.90;;;;;;;;;;6210333;23;20167;-74
2023/05/01 14:10:41;;;;;;;1999.90;999.90;;;;;;;;;;6210948;23;20240;-75
2023/05/01 14:13:26;;;;;;;1999.90;999.90;;;;;;;;;;6211545;23;20550;-76
2023/05/01 14:16:17;;;;;;;1999.90;999.90;;;;;;;;;;6210623;23;20170;-76
2023/05/01 14:19:04;;;;;;;1999.90;999.90;;;;;;;;;;6210491;23;20272;-75
2023/05/01 14:21:49;;;;;;;1999.90;999.90;;;;;;;;;;6210742;23;20176;-76
2023/05/01 14:24:35;;;;;;;1999.90;999.90;;;;;;;;;;6211380;23;20252;-74
2023/05/01 14:27:21;;;;;;;1999.90;999.90;;;;;;;;;;6210376;23;20250;-71
2023/05/01 14:30:07;;;;;;;1999.90;999.90;;;;;;;;;;6209164;23;20391;-71
2023/05/01 14:32:52;;;;;;;1999.90;999.90;;;;;;;;;;6210690;23;20170;-71
2023/05/01 14:35:43;;;;;;;1999.90;999.90;;;;;;;;;;6210781;23;20566;-70
2023/05/01 14:38:37;;;;;;;1999.90;999.90;;;;;;;;;;6210572;23;20549;-71
2023/05/01 14:41:22;;;;;;;1999.90;999.90;;;;;;;;;;6210960;23;20162;-71
2023/05/01 14:44:10;;;;;;;1999.90;999.90;;;;;;;;;;6210598;23;20413;-71
2023/05/01 14:46:57;;;;;;;1999.90;999.90;;;;;;;;;;6211093;23;20446;-71
2023/05/01 14:49:42;;;;;;;1999.90;999.90;;;;;;;;;;6208785;23;20291;-73
2023/05/01 14:52:28;;;;;;;1999.90;999.90;;;;;;;;;;6210431;23;20275;-72
2023/05/01 14:55:14;;;;;;;1999.90;999.90;;;;;;;;;;6210509;23;20170;-70
2023/05/01 14:57:59;;;;;;;1999.90;999.90;;;;;;;;;;6210007;23;20217;-72
2023/05/01 15:00:43;;;;;;;1999.90;999.90;;;;;;;;;;6210355;23;20510;-73
2023/05/01 15:03:28;;;;;;;1999.90;999.90;;;;;;;;;;6210085;23;20166;-75
2023/05/01 15:06:13;;;;;;;1999.90;999.90;;;;;;;;;;6209625;23;20174;-71
2023/05/01 15:09:00;;;;;;;1999.90;999.90;;;;;;;;;;6209192;23;20201;-71
2023/05/01 15:11:46;;;;;;;1999.90;999.90;;;;;;;;;;6210842;23;20580;-71
2023/05/01 15:14:30;;;;;;;1999.90;999.90;;;;;;;;;;6210239;23;20458;-70
2023/05/01 15:17:15;;;;;;;1999.90;999.90;;;;;;;;;;6210868;23;20213;-72
2023/05/01 15:20:00;;;;;;;1999.90;999.90;;;;;;;;;;6210279;23;20209;-71
2023/05/01 15:22:45;;;;;;;1999.90;999.90;;;;;;;;;;6210431;23;20213;-70
2023/05/01 15:25:31;;;;;;;1999.90;999.90;;;;;;;;;;6210827;23;20181;-71
2023/05/01 15:28:16;;;;;;;1999.90;999.90;;;;;;;;;;6209441;23;20216;-71
2023/05/01 15:31:02;;;;;;;1999.90;999.90;;;;;;;;;;6208788;23;20386;-72
2023/05/01 15:33:47;;;;;;;1999.90;999.90;;;;;;;;;;6209321;23;20170;-71
2023/05/01 15:36:32;;;;;;;1999.90;999.90;;;;;;;;;;6209706;23;20174;-70
2023/05/01 15:39:18;;;;;;;1999.90;999.90;;;;;;;;;;6210280;23;20259;-71
2023/05/01 15:42:05;;;;;;;1999.90;999.90;;;;;;;;;;6210623;23;20209;-71
2023/05/01 15:44:51;;;;;;;1999.90;999.90;;;;;;;;;;6210271;23;20293;-69
2023/05/01 15:47:36;;;;;;;1999.90;999.90;;;;;;;;;;6216926;23;20189;-72
2023/05/01 15:50:22;;;;;;;1999.90;999.90;;;;;;;;;;6213469;23;20201;-71
2023/05/01 15:53:07;;;;;;;1999.90;999.90;;;;;;;;;;6215709;23;20193;-72
2023/05/01 15:55:55;;;;;;;1999.90;999.90;;;;;;;;;;6211021;23;20192;-72
2023/05/01 15:58:41;;;;;;;1999.90;999.90;;;;;;;;;;6213188;23;20295;-70
2023/05/01 16:01:27;;;;;;;1999.90;999.90;;;;;;;;;;6213475;23;20236;-70
2023/05/01 16:04:12;;;;;;;1999.90;999.90;;;;;;;;;;6213511;23;20275;-70
2023/05/01 16:06:57;;;;;;;1999.90;999.90;;;;;;;;;;6213545;23;20309;-70
2023/05/01 16:09:41;;;;;;;1999.90;999.90;;;;;;;;;;6212800;23;20285;-70
2023/05/01 16:12:27;;;;;;;1999.90;999.90;;;;;;;;;;6213166;23;20707;-71
2023/05/01 16:15:14;;;;;;;1999.90;999.90;;;;;;;;;;6213636;23;20170;-72
2023/05/01 16:17:59;;;;;;;1999.90;999.90;;;;;;;;;;6211760;23;20716;-72
2023/05/01 16:20:45;;;;;;;1999.90;999.90;;;;;;;;;;6213314;23;20495;-73
2023/05/01 16:23:29;;;;;;;1999.90;999.90;;;;;;;;;;6213646;23;20507;-72
2023/05/01 16:26:18;;;;;;;1999.90;999.90;;;;;;;;;;6213562;23;20189;-72
2023/05/01 16:29:05;;;;;;;1999.90;999.90;;;;;;;;;;6214259;23;20209;-73
2023/05/01 16:31:51;;;;;;;1999.90;999.90;;;;;;;;;;6211170;23;20233;-72
2023/05/01 16:34:37;;;;;;;1999.90;999.90;;;;;;;;;;6211477;23;20176;-73
2023/05/01 16:37:24;;;;;;;1999.90;999.90;;;;;;;;;;6211575;23;20174;-72
2023/05/01 16:40:10;;;;;;;1999.90;999.90;;;;;;;;;;6211086;23;20201;-72
2023/05/01 16:42:59;;;;;;;1999.90;999.90;;;;;;;;;;6211365;23;20205;-72
2023/05/01 16:45:45;;;;;;;1999.90;999.90;;;;;;;;;;6212840;23;20170;-71
2023/05/01 16:48:34;;;;;;;1999.90;999.90;;;;;;;;;;6212490;23;20205;-71
2023/05/01 16:51:19;;;;;;;1999.90;999.90;;;;;;;;;;6212450;23;20286;-72
2023/05/01 16:54:04;;;;;;;1999.90;999.90;;;;;;;;;;6213590;23;20245;-72
2023/05/01 16:56:50;;;;;;;1999.90;999.90;;;;;;;;;;6214501;23;20170;-72
2023/05/01 16:59:35;;;;;;;1999.90;999.90;;;;;;;;;;6214734;23;20697;-71
2023/05/01 17:02:20;;;;;;;1999.90;999.90;;;;;;;;;;6213936;23;20241;-70
2023/05/01 17:05:07;;;;;;;1999.90;999.90;;;;;;;;;;6213479;23;20709;-69
2023/05/01 17:07:52;;;;;;;1999.90;999.90;;;;;;;;;;6214601;23;20662;-69
2023/05/01 17:10:38;;;;;;;1999.90;999.90;;;;;;;;;;6214878;23;20182;-69
2023/05/01 17:13:23;;;;;;;1999.90;999.90;;;;;;;;;;6214713;23;20273;-69
2023/05/01 17:16:08;;;;;;;1999.90;999.90;;;;;;;;;;6214660;23;20272;-71
2023/05/01 17:18:53;;;;;;;1999.90;999.90;;;;;;;;;;6209090;23;20252;-69
2023/05/01 17:21:40;;;;;;;1999.90;999.90;;;;;;;;;;6211716;23;20209;-70
2023/05/01 17:24:25;;;;;;;1999.90;999.90;;;;;;;;;;6211319;23;20216;-71
2023/05/01 17:27:11;;;;;;;1999.90;999.90;;;;;;;;;;6211503;23;20618;-70
2023/05/01 17:29:56;;;;;;;1999.90;999.90;;;;;;;;;;6211205;23;20275;-71
2023/05/01 17:32:41;;;;;;;1999.90;999.90;;;;;;;;;;6211136;23;20213;-70
2023/05/01 17:35:27;;;;;;;1999.90;999.90;;;;;;;;;;6209364;23;20225;-70
2023/05/01 17:38:13;;;;;;;1999.90;999.90;;;;;;;;;;6211828;23;20863;-70
2023/05/01 17:40:57;;;;;;;1999.90;999.90;;;;;;;;;;6212060;23;20165;-69
2023/05/01 17:43:43;;;;;;;1999.90;999.90;;;;;;;;;;6212528;23;20228;-71
2023/05/01 17:46:28;;;;;;;1999.90;999.90;;;;;;;;;;6211238;23;20173;-71